Vernalis, California
Current Conditions -  °F | °C
As of 1:53 PM on Monday 20 Oct 2014 (Local Time) from KMOD Reporting Station
Clear Clear  
Wind Chill: 76°   Ceiling: Unl
Heat Index: 76°   Visibility: 10mi
Dew Point: 54°   Wind: 14mph
Humidity: 46%   Direction: 300°WNW
Pressure: 29.91"   Gusts: NA
Location:  37.61°N, 121.26°W
Report Text: KMOD 202053Z 30012KT 10SM CLR 24/12 A2991 RMK AO2 SLP129 T02440122 58011
Loading
Personal Weather Stations






























Interactive Weather Map
Tropical Storm Tracking
New forecast layout! Learn more

10-Day Weather Forecast

Advertisements
Track Severe Weather on mobile